Archival Weather

Snohomish County (Paine Fld)

Everett, Washington (KPAE)

Report from: Wednesday, November 15, 2023 12:53 PM PST
Current time: Friday, June 21, 2024 1:59 AM PDT

Current weather – Weather history – Daily summaries
Weather forecast

Temperature6.1°C (43.0°F)
Wind chill5.1°C (41.3°F)
Dew point-0.6°C (30.9°F)
Winds 3 kts (1.5 m/s, 3.5 mph) Northeast (50°)
Visibility10 mi. (16.1 km)
Clouds Few clouds 8,500 ft. (2,591 m)
Altimeter29.95 in.Hg (1014 mB)
Relative humidity62 %
Density altitude-1,033 ft. (-315 m)
Sea-level pressure101.5 kPa (1015 mB, 29.96 in.Hg)
Remarks Automated weather observing station with precipitation discriminator
Pressure falling more quickly
Flight conditions Visual Meteorological Conditions
Raw dataKPAE 152053Z 05003KT 10SM FEW085 06/M01 A2995 RMK AO2 SLP147 T00611006 58003
An error has occurred. This application may no longer respond until reloaded. Reload 🗙